Time;durP1;ratioP1;P1;durP2;ratioP2;P2;SDS_P1;SDS_P2;PMS_P1;PMS_P2;Temp;Humidity;BMP_temperature;BMP_pressure;BME280_temperature;BME280_humidity;BME280_pressure;Samples;Min_cycle;Max_cycle;Signal;HPM_P1;HPM_P2
2023/06/10 00:01:37;;;;;;;10.85;5.60;;;17.60;99.90;;;;;;5084077;28;20066;-73
2023/06/10 00:04:04;;;;;;;14.75;5.53;;;18.40;99.90;;;;;;5085877;28;20044;-74
2023/06/10 00:06:35;;;;;;;12.68;5.13;;;17.60;99.90;;;;;;5078879;28;20543;-73
2023/06/10 00:09:04;;;;;;;10.38;5.53;;;16.70;99.90;;;;;;5085635;28;20044;-74
2023/06/10 00:11:33;;;;;;;10.52;4.97;;;16.80;99.90;;;;;;5080883;28;20059;-73
2023/06/10 00:14:00;;;;;;;14.55;6.03;;;17.60;99.90;;;;;;5068619;28;20520;-73
2023/06/10 00:16:26;;;;;;;11.13;5.22;;;18.90;99.60;;;;;;5079288;28;20071;-73
2023/06/10 00:18:51;;;;;;;11.43;5.85;;;18.90;99.90;;;;;;5073645;28;20349;-74
2023/06/10 00:21:18;;;;;;;13.80;5.18;;;16.70;99.90;;;;;;5076294;28;20047;-73
2023/06/10 00:23:44;;;;;;;12.18;4.80;;;17.90;97.00;;;;;;5082298;28;20044;-73
2023/06/10 00:26:11;;;;;;;12.18;5.97;;;;;;;;;;5082452;28;20429;-73
2023/06/10 00:28:37;;;;;;;17.50;5.60;;;;;;;;;;5067924;28;20059;-73
2023/06/10 00:31:04;;;;;;;7.45;4.95;;;;;;;;;;5066098;28;20040;-73
2023/06/10 00:33:30;;;;;;;12.13;6.03;;;17.00;99.90;;;;;;5073917;28;20518;-74
2023/06/10 00:35:55;;;;;;;10.77;6.13;;;17.20;99.90;;;;;;5041314;28;20048;-73
2023/06/10 00:38:22;;;;;;;11.07;5.25;;;;;;;;;;5077329;28;20472;-74
2023/06/10 00:40:48;;;;;;;11.93;5.55;;;;;;;;;;5083219;28;20036;-73
2023/06/10 00:43:13;;;;;;;11.63;5.00;;;18.80;99.90;;;;;;5080700;28;20043;-73
2023/06/10 00:45:39;;;;;;;10.43;5.70;;;;;;;;;;5088002;28;20119;-73
2023/06/10 00:48:10;;;;;;;14.02;5.90;;;18.70;99.90;;;;;;5082627;28;20487;-74
2023/06/10 00:50:39;;;;;;;13.03;6.20;;;;;;;;;;5072193;28;20072;-73
2023/06/10 00:53:05;;;;;;;10.02;5.10;;;18.60;99.90;;;;;;5081299;28;20074;-73
2023/06/10 00:55:32;;;;;;;9.20;5.30;;;17.40;97.60;;;;;;5086547;28;20196;-73
2023/06/10 00:57:59;;;;;;;9.02;5.40;;;17.20;98.30;;;;;;5059056;28;20040;-73
2023/06/10 01:00:25;;;;;;;13.65;4.72;;;17.10;99.90;;;;;;5088435;28;20094;-73
2023/06/10 01:02:55;;;;;;;9.18;4.90;;;17.00;99.90;;;;;;5086602;28;20039;-73
2023/06/10 01:05:21;;;;;;;12.90;5.80;;;17.70;99.30;;;;;;5080653;28;20045;-73
2023/06/10 01:08:00;;;;;;;11.35;6.15;;;17.70;99.90;;;;;;5083665;28;20483;-73
2023/06/10 01:10:35;;;;;;;12.02;5.88;;;16.70;99.90;;;;;;5079309;28;20032;-73
2023/06/10 01:13:11;;;;;;;12.50;5.80;;;17.40;96.90;;;;;;5074204;28;20116;-73
2023/06/10 01:15:37;;;;;;;9.07;5.50;;;16.30;99.90;;;;;;5076814;28;20115;-74
2023/06/10 01:18:09;;;;;;;12.10;6.13;;;16.80;99.90;;;;;;5086563;28;20115;-72
2023/06/10 01:20:39;;;;;;;14.83;6.27;;;16.80;99.90;;;;;;5086029;28;20044;-72
2023/06/10 01:23:06;;;;;;;12.73;5.97;;;16.00;99.90;;;;;;5076377;28;20048;-72
2023/06/10 01:25:33;;;;;;;10.73;5.10;;;;;;;;;;5063195;28;20047;-72
2023/06/10 01:28:20;;;;;;;10.85;5.82;;;18.00;97.60;;;;;;5074291;28;20173;-72
2023/06/10 01:31:00;;;;;;;13.30;6.60;;;17.70;99.40;;;;;;5079462;28;20044;-72
2023/06/10 01:33:35;;;;;;;8.43;5.40;;;18.10;99.90;;;;;;5085902;28;20441;-72
2023/06/10 01:36:03;;;;;;;11.13;5.78;;;16.90;98.10;;;;;;5076929;28;20055;-73
2023/06/10 01:38:36;;;;;;;10.65;5.70;;;18.00;99.90;;;;;;5085723;28;20388;-73
2023/06/10 01:41:03;;;;;;;9.52;5.95;;;16.60;99.90;;;;;;5077106;28;20077;-73
2023/06/10 01:43:33;;;;;;;12.23;5.65;;;17.00;98.40;;;;;;5084043;28;20033;-73
2023/06/10 01:45:59;;;;;;;11.68;5.80;;;17.90;99.90;;;;;;5088630;28;20043;-73
2023/06/10 01:48:25;;;;;;;12.63;5.85;;;;;;;;;;5076701;28;20040;-73
2023/06/10 01:50:51;;;;;;;11.38;5.75;;;;;;;;;;5082752;28;20542;-73
2023/06/10 01:53:17;;;;;;;11.90;6.22;;;;;;;;;;5061271;28;20492;-73
2023/06/10 01:55:44;;;;;;;12.57;6.00;;;;;;;;;;5061755;28;20040;-74
2023/06/10 01:58:10;;;;;;;9.02;5.63;;;;;;;;;;5076784;28;20041;-73
2023/06/10 02:00:36;;;;;;;13.55;6.25;;;;;;;;;;5065569;28;20039;-73
2023/06/10 02:03:02;;;;;;;8.65;5.82;;;;;;;;;;5078751;28;20028;-73
2023/06/10 02:05:28;;;;;;;14.80;5.95;;;;;;;;;;5057057;28;20047;-73
2023/06/10 02:07:54;;;;;;;11.70;5.60;;;16.40;99.90;;;;;;5077647;28;20063;-73
2023/06/10 02:10:19;;;;;;;12.32;5.88;;;16.90;99.90;;;;;;5089227;28;20059;-73
2023/06/10 02:12:45;;;;;;;12.98;5.97;;;17.40;99.90;;;;;;5087828;28;20145;-73
2023/06/10 02:15:11;;;;;;;12.05;6.38;;;15.90;99.90;;;;;;5069648;28;20113;-73
2023/06/10 02:17:37;;;;;;;10.75;5.90;;;;;;;;;;5082378;28;20032;-73
2023/06/10 02:20:06;;;;;;;12.43;5.88;;;16.10;99.90;;;;;;5059746;28;20033;-72
2023/06/10 02:22:32;;;;;;;13.48;6.00;;;17.60;99.90;;;;;;5082781;28;20052;-69
2023/06/10 02:24:58;;;;;;;9.63;5.70;;;;;;;;;;5074686;28;20119;-70
2023/06/10 02:27:24;;;;;;;11.20;6.30;;;;;;;;;;5069967;28;20040;-70
2023/06/10 02:29:50;;;;;;;10.50;6.20;;;;;;;;;;5074350;28;20037;-70
2023/06/10 02:32:19;;;;;;;10.60;5.65;;;16.50;99.90;;;;;;5080833;28;20035;-70
2023/06/10 02:34:45;;;;;;;10.57;6.38;;;;;;;;;;5092082;28;20116;-70
2023/06/10 02:37:11;;;;;;;10.75;5.88;;;;;;;;;;5080773;28;20036;-70
2023/06/10 02:39:37;;;;;;;9.23;5.70;;;;;;;;;;5074040;28;20123;-70
2023/06/10 02:42:03;;;;;;;10.18;5.97;;;16.80;99.90;;;;;;5074042;28;20388;-69
2023/06/10 02:44:29;;;;;;;14.50;6.35;;;15.60;99.90;;;;;;5079551;28;20044;-70
2023/06/10 02:46:55;;;;;;;12.65;5.97;;;;;;;;;;5075577;28;20039;-69
2023/06/10 02:49:21;;;;;;;10.48;5.78;;;16.90;99.90;;;;;;5074415;28;20457;-69
2023/06/10 02:51:47;;;;;;;13.40;5.93;;;;;;;;;;5065791;28;20091;-69
2023/06/10 02:54:13;;;;;;;15.68;5.45;;;;;;;;;;5088161;28;20040;-69
2023/06/10 02:56:41;;;;;;;9.85;5.70;;;;;;;;;;5091485;28;20067;-69
2023/06/10 02:59:08;;;;;;;9.90;5.55;;;;;;;;;;5083280;28;20498;-70
2023/06/10 03:01:36;;;;;;;12.52;5.47;;;16.50;99.90;;;;;;5068061;28;20040;-70
2023/06/10 03:04:03;;;;;;;14.20;6.35;;;;;;;;;;5083185;28;20052;-70
2023/06/10 03:06:29;;;;;;;10.52;6.10;;;15.00;99.90;;;;;;5057170;28;20583;-70
2023/06/10 03:08:55;;;;;;;10.23;6.18;;;15.90;99.90;;;;;;5073631;28;20037;-70
2023/06/10 03:11:21;;;;;;;11.68;5.65;;;;;;;;;;5087476;28;20036;-69
2023/06/10 03:13:46;;;;;;;13.27;6.07;;;16.60;99.90;;;;;;5072089;28;20040;-72
2023/06/10 03:16:13;;;;;;;10.35;5.45;;;;;;;;;;5087353;28;20052;-74
2023/06/10 03:18:38;;;;;;;13.52;6.00;;;14.80;99.90;;;;;;5087513;28;20491;-73
2023/06/10 03:21:04;;;;;;;12.15;6.30;;;;;;;;;;5060548;28;20040;-73
2023/06/10 03:23:30;;;;;;;13.30;6.35;;;16.70;99.90;;;;;;5082658;28;20040;-73
2023/06/10 03:25:56;;;;;;;11.07;5.82;;;;;;;;;;5081803;28;20090;-69
2023/06/10 03:28:22;;;;;;;10.68;5.72;;;;;;;;;;5058424;28;20048;-69
2023/06/10 03:30:48;;;;;;;13.35;5.72;;;;;;;;;;5090609;28;20537;-69
2023/06/10 03:33:14;;;;;;;12.35;6.10;;;;;;;;;;5072284;28;20233;-70
2023/06/10 03:35:40;;;;;;;12.63;6.18;;;16.10;99.90;;;;;;5056089;28;20487;-70
2023/06/10 03:38:06;;;;;;;11.85;6.05;;;16.60;99.90;;;;;;5082427;28;20032;-69
2023/06/10 03:40:32;;;;;;;14.25;6.43;;;15.00;99.90;;;;;;5077702;28;20024;-70
2023/06/10 03:42:58;;;;;;;10.57;5.70;;;;;;;;;;5072707;28;20055;-70
2023/06/10 03:45:24;;;;;;;9.75;6.50;;;;;;;;;;5087859;28;20093;-69
2023/06/10 03:47:50;;;;;;;11.60;6.25;;;;;;;;;;5072662;28;20043;-70
2023/06/10 03:50:16;;;;;;;13.73;7.03;;;;;;;;;;5088488;28;20182;-69
2023/06/10 03:52:44;;;;;;;14.75;6.15;;;;;;;;;;5090867;28;20427;-70
2023/06/10 03:55:11;;;;;;;11.07;6.05;;;;;;;;;;5089228;28;20059;-70
2023/06/10 03:57:37;;;;;;;14.38;6.00;;;;;;;;;;5079180;28;20455;-69
2023/06/10 04:00:08;;;;;;;15.68;6.43;;;16.50;99.90;;;;;;5068593;28;20039;-69
2023/06/10 04:02:34;;;;;;;12.32;6.10;;;;;;;;;;5064868;28;20456;-69
2023/06/10 04:05:01;;;;;;;13.00;5.90;;;;;;;;;;5082555;28;20035;-69
2023/06/10 04:07:28;;;;;;;11.55;6.18;;;;;;;;;;5089905;28;20373;-69
2023/06/10 04:09:54;;;;;;;9.60;5.25;;;;;;;;;;5081854;28;20542;-69
2023/06/10 04:12:20;;;;;;;13.68;6.32;;;;;;;;;;5072331;28;20456;-69
2023/06/10 04:14:46;;;;;;;9.82;5.80;;;;;;;;;;5065524;28;20068;-69
2023/06/10 04:17:12;;;;;;;12.23;6.30;;;;;;;;;;5074803;28;20045;-69
2023/06/10 04:19:38;;;;;;;11.13;5.20;;;;;;;;;;5072411;28;20040;-69
2023/06/10 04:22:05;;;;;;;11.38;5.03;;;;;;;;;;5077548;28;20416;-69
2023/06/10 04:24:31;;;;;;;10.68;5.85;;;;;;;;;;5075808;28;20040;-69
2023/06/10 04:26:57;;;;;;;13.45;5.80;;;;;;;;;;5083605;28;20396;-69
2023/06/10 04:29:23;;;;;;;10.45;5.70;;;;;;;;;;5072436;28;20105;-69
2023/06/10 04:31:50;;;;;;;9.85;5.50;;;;;;;;;;5072523;28;20044;-69
2023/06/10 04:34:16;;;;;;;10.85;5.38;;;;;;;;;;5072657;28;20090;-69
2023/06/10 04:36:42;;;;;;;12.52;5.78;;;;;;;;;;5072306;28;20032;-69
2023/06/10 04:39:08;;;;;;;8.45;5.32;;;;;;;;;;5076610;28;20047;-69
2023/06/10 04:41:34;;;;;;;11.73;5.85;;;;;;;;;;5091883;28;20085;-69
2023/06/10 04:44:00;;;;;;;13.27;5.32;;;15.10;99.90;;;;;;5092233;28;20040;-69
2023/06/10 04:46:26;;;;;;;12.65;6.07;;;;;;;;;;5092511;28;20051;-69
2023/06/10 04:48:53;;;;;;;12.10;5.65;;;15.50;99.90;;;;;;5092180;28;20048;-69
2023/06/10 04:51:19;;;;;;;8.80;5.20;;;;;;;;;;5092378;28;20044;-69
2023/06/10 04:53:45;;;;;;;12.48;5.45;;;;;;;;;;5091542;28;20044;-69
2023/06/10 04:56:11;;;;;;;9.15;5.30;;;;;;;;;;5077355;28;20124;-69
2023/06/10 04:58:37;;;;;;;12.88;5.45;;;;;;;;;;5090026;28;20040;-69
2023/06/10 05:01:04;;;;;;;12.15;5.28;;;15.20;99.90;;;;;;5079626;28;20047;-72
2023/06/10 05:03:30;;;;;;;13.48;5.43;;;;;;;;;;5058673;28;21389;-72
2023/06/10 05:05:55;;;;;;;11.90;5.32;;;16.50;99.90;;;;;;5076401;28;20044;-72
2023/06/10 05:08:21;;;;;;;19.02;6.07;;;14.70;99.90;;;;;;5076992;28;20480;-72
2023/06/10 05:10:47;;;;;;;12.80;5.65;;;15.80;99.90;;;;;;5070123;28;20043;-72
2023/06/10 05:13:12;;;;;;;13.00;5.97;;;16.50;99.90;;;;;;5072805;28;20045;-73
2023/06/10 05:15:38;;;;;;;11.00;5.35;;;14.70;99.90;;;;;;5077428;28;20181;-73
2023/06/10 05:18:04;;;;;;;11.60;5.22;;;;;;;;;;5074039;28;20040;-73
2023/06/10 05:20:30;;;;;;;13.10;5.97;;;;;;;;;;5086698;28;20040;-72
2023/06/10 05:22:56;;;;;;;9.00;5.60;;;;;;;;;;5089479;28;20059;-72
2023/06/10 05:25:22;;;;;;;13.70;5.70;;;14.90;99.90;;;;;;5064481;28;20048;-72
2023/06/10 05:27:48;;;;;;;9.95;5.63;;;16.90;99.90;;;;;;5079835;28;20040;-73
2023/06/10 05:30:14;;;;;;;11.93;5.50;;;;;;;;;;5078439;28;20488;-73
2023/06/10 05:32:41;;;;;;;10.50;5.50;;;;;;;;;;5057151;28;20040;-74
2023/06/10 05:35:07;;;;;;;14.23;6.22;;;;;;;;;;5082704;28;20090;-73
2023/06/10 05:37:34;;;;;;;16.38;6.50;;;16.20;99.90;;;;;;5071565;28;20040;-74
2023/06/10 05:40:00;;;;;;;13.55;5.88;;;16.10;99.90;;;;;;5074527;28;20094;-74
2023/06/10 05:42:26;;;;;;;10.32;5.22;;;15.40;99.90;;;;;;5079245;28;20036;-74
2023/06/10 05:44:52;;;;;;;10.88;6.15;;;;;;;;;;5080615;28;20036;-73
2023/06/10 05:47:18;;;;;;;10.23;5.97;;;;;;;;;;5080441;28;20035;-74
2023/06/10 05:49:45;;;;;;;12.75;5.85;;;;;;;;;;5078242;28;20496;-74
2023/06/10 05:52:14;;;;;;;10.55;6.00;;;15.20;99.90;;;;;;5091675;28;20496;-74
2023/06/10 05:54:40;;;;;;;10.70;6.07;;;15.10;99.90;;;;;;5070298;28;20041;-72
2023/06/10 05:57:05;;;;;;;13.27;6.22;;;16.90;99.90;;;;;;5058450;28;20102;-72
2023/06/10 05:59:31;;;;;;;11.75;6.00;;;17.20;99.90;;;;;;5075131;28;20044;-73
2023/06/10 06:01:57;;;;;;;14.70;5.70;;;;;;;;;;5075033;28;20040;-73
2023/06/10 06:04:23;;;;;;;13.25;5.75;;;15.50;99.90;;;;;;5083086;28;20028;-73
2023/06/10 06:06:49;;;;;;;10.23;5.60;;;;;;;;;;5083485;28;20048;-73
2023/06/10 06:09:15;;;;;;;12.90;6.43;;;;;;;;;;5082719;28;20065;-73
2023/06/10 06:11:41;;;;;;;11.75;6.22;;;;;;;;;;5083864;28;20491;-72
2023/06/10 06:14:07;;;;;;;12.38;5.65;;;16.80;99.90;;;;;;5092770;28;20047;-73
2023/06/10 06:16:33;;;;;;;13.77;5.97;;;16.60;99.90;;;;;;5084650;28;20036;-69
2023/06/10 06:18:59;;;;;;;11.65;6.18;;;17.30;99.90;;;;;;5058134;28;20489;-70
2023/06/10 06:21:24;;;;;;;13.23;5.90;;;15.60;99.90;;;;;;5085638;28;20133;-70
2023/06/10 06:23:50;;;;;;;11.63;5.70;;;;;;;;;;5081493;28;20048;-70
2023/06/10 06:26:16;;;;;;;10.98;5.80;;;;;;;;;;5079032;28;20040;-70
2023/06/10 06:28:42;;;;;;;12.00;6.03;;;;;;;;;;5082761;28;20460;-70
2023/06/10 06:31:09;;;;;;;12.45;6.18;;;;;;;;;;5071928;28;20037;-70
2023/06/10 06:33:35;;;;;;;10.25;5.88;;;;;;;;;;5083272;28;20036;-70
2023/06/10 06:36:01;;;;;;;14.90;5.90;;;;;;;;;;5085899;28;20046;-70
2023/06/10 06:38:27;;;;;;;10.52;5.65;;;;;;;;;;5077914;28;20043;-70
2023/06/10 06:40:53;;;;;;;11.18;5.72;;;15.80;99.90;;;;;;5076085;28;20072;-70
2023/06/10 06:43:19;;;;;;;10.52;6.07;;;17.00;99.90;;;;;;5057779;28;20039;-70
2023/06/10 06:45:46;;;;;;;16.33;6.10;;;17.10;99.90;;;;;;5074078;28;20127;-70
2023/06/10 06:48:12;;;;;;;13.77;6.38;;;;;;;;;;5075104;28;20036;-69
2023/06/10 06:50:38;;;;;;;11.50;5.50;;;15.90;99.90;;;;;;5075451;28;20060;-68
2023/06/10 06:53:04;;;;;;;11.40;6.05;;;18.00;99.90;;;;;;5072088;28;20459;-69
2023/06/10 06:55:30;;;;;;;10.38;5.53;;;;;;;;;;5095192;28;20056;-69
2023/06/10 06:57:56;;;;;;;11.82;5.75;;;;;;;;;;5077651;28;20036;-69
2023/06/10 07:00:24;;;;;;;11.05;6.07;;;17.80;99.90;;;;;;5077373;28;20036;-69
2023/06/10 07:02:50;;;;;;;8.75;5.40;;;;;;;;;;5094113;28;20036;-69
2023/06/10 07:05:16;;;;;;;10.20;5.78;;;;;;;;;;5076738;28;20044;-69
2023/06/10 07:07:43;;;;;;;9.32;5.75;;;17.50;99.90;;;;;;5093926;28;20085;-69
2023/06/10 07:10:09;;;;;;;10.82;5.10;;;;;;;;;;5094199;28;20480;-69
2023/06/10 07:12:35;;;;;;;13.35;5.82;;;;;;;;;;5094042;28;20127;-69
2023/06/10 07:15:01;;;;;;;12.32;5.45;;;;;;;;;;5093898;28;20093;-69
2023/06/10 07:17:27;;;;;;;12.38;5.40;;;;;;;;;;5095108;28;20050;-69
2023/06/10 07:19:57;;;;;;;13.45;5.85;;;16.40;99.90;;;;;;5076751;28;20040;-69
2023/06/10 07:22:23;;;;;;;14.88;5.80;;;;;;;;;;5093442;28;20114;-69
2023/06/10 07:24:48;;;;;;;12.73;6.57;;;18.60;99.90;;;;;;5076736;28;20067;-69
2023/06/10 07:27:14;;;;;;;11.02;5.45;;;;;;;;;;5093497;28;20491;-69
2023/06/10 07:29:41;;;;;;;14.05;5.20;;;;;;;;;;5093737;28;20102;-69
2023/06/10 07:32:07;;;;;;;10.68;5.95;;;18.80;99.90;;;;;;5093456;28;20078;-69
2023/06/10 07:34:33;;;;;;;14.18;6.45;;;;;;;;;;5060172;28;20051;-70
2023/06/10 07:36:59;;;;;;;15.32;5.75;;;;;;;;;;5076617;28;20475;-69
2023/06/10 07:39:25;;;;;;;11.23;5.57;;;;;;;;;;5076468;28;20085;-69
2023/06/10 07:41:53;;;;;;;11.82;5.78;;;18.80;99.90;;;;;;5076634;28;20369;-69
2023/06/10 07:44:19;;;;;;;14.55;6.28;;;;;;;;;;5076551;28;20032;-69
2023/06/10 07:46:46;;;;;;;12.98;5.60;;;;;;;;;;5076546;28;20043;-69
2023/06/10 07:49:12;;;;;;;10.88;5.45;;;;;;;;;;5076187;28;20036;-70
2023/06/10 07:51:38;;;;;;;9.50;5.45;;;;;;;;;;5093337;28;20052;-69
2023/06/10 07:54:03;;;;;;;13.73;5.40;;;19.20;99.90;;;;;;5094425;28;20089;-69
2023/06/10 07:56:29;;;;;;;12.63;5.78;;;;;;;;;;5092853;28;20056;-69
2023/06/10 07:58:56;;;;;;;8.82;4.88;;;;;;;;;;5093201;28;20067;-69
2023/06/10 08:01:23;;;;;;;11.10;5.20;;;18.60;99.90;;;;;;5093145;28;20042;-69
2023/06/10 08:03:49;;;;;;;10.65;5.50;;;;;;;;;;5093165;28;20028;-69
2023/06/10 08:06:16;;;;;;;10.40;5.20;;;17.50;99.90;;;;;;5092814;28;20101;-69
2023/06/10 08:08:43;;;;;;;11.05;5.40;;;;;;;;;;5094179;28;20039;-69
2023/06/10 08:11:12;;;;;;;9.15;5.13;;;18.50;99.90;;;;;;5092823;28;20048;-69
2023/06/10 08:13:39;;;;;;;9.73;4.90;;;;;;;;;;5059981;28;20035;-69
2023/06/10 08:16:05;;;;;;;9.75;5.20;;;19.00;99.90;;;;;;5092041;28;20104;-69
2023/06/10 08:18:31;;;;;;;10.30;5.32;;;18.70;99.90;;;;;;5092648;28;20123;-70
2023/06/10 08:20:57;;;;;;;9.00;5.00;;;18.60;99.90;;;;;;5076105;28;20036;-69
2023/06/10 08:23:23;;;;;;;9.13;5.10;;;18.40;99.90;;;;;;5092697;28;20044;-70
2023/06/10 08:25:49;;;;;;;12.15;5.38;;;19.70;99.90;;;;;;5092501;28;20050;-69
2023/06/10 08:28:15;;;;;;;9.52;4.57;;;;;;;;;;5092476;28;20059;-73
2023/06/10 08:30:40;;;;;;;9.35;4.47;;;20.00;99.90;;;;;;5093864;28;20123;-74
2023/06/10 08:33:06;;;;;;;8.75;5.00;;;18.70;99.90;;;;;;5092322;28;20123;-74
2023/06/10 08:35:32;;;;;;;7.22;4.68;;;20.20;99.90;;;;;;5092271;28;20056;-72
2023/06/10 08:37:58;;;;;;;9.82;4.72;;;;;;;;;;5075617;28;20036;-72
2023/06/10 08:40:24;;;;;;;11.45;4.70;;;;;;;;;;5075491;28;20391;-73
2023/06/10 08:43:06;;;;;;;7.85;4.93;;;20.50;99.90;;;;;;5092084;28;20507;-73
2023/06/10 08:45:35;;;;;;;;;;;19.80;99.90;;;;;;5092904;28;20426;-72
2023/06/10 08:48:06;;;;;;;7.38;4.90;;;19.50;99.90;;;;;;5092197;28;20345;-73
2023/06/10 08:50:36;;;;;;;9.65;5.30;;;19.20;99.90;;;;;;5075467;28;20044;-73
2023/06/10 08:53:07;;;;;;;12.85;5.10;;;20.10;99.90;;;;;;5092175;28;20062;-72
2023/06/10 08:55:37;;;;;;;10.80;4.93;;;20.70;99.90;;;;;;5091876;28;20044;-72
2023/06/10 08:58:03;;;;;;;9.85;5.32;;;21.00;99.90;;;;;;5075191;28;20040;-72
2023/06/10 09:00:30;;;;;;;13.77;5.60;;;21.20;99.90;;;;;;5092016;28;20047;-72
2023/06/10 09:02:57;;;;;;;14.30;5.10;;;20.50;99.90;;;;;;5092291;28;20123;-73
2023/06/10 09:05:23;;;;;;;11.30;5.07;;;19.60;99.90;;;;;;5092210;28;20040;-73
2023/06/10 09:07:51;;;;;;;9.57;4.97;;;20.80;99.90;;;;;;5074927;28;20506;-73
2023/06/10 09:10:17;;;;;;;10.95;4.95;;;21.40;99.90;;;;;;5091927;28;20080;-72
2023/06/10 09:12:44;;;;;;;18.40;5.38;;;;;;;;;;5091853;28;20043;-73
2023/06/10 09:15:11;;;;;;;13.40;4.60;;;21.70;99.90;;;;;;5091960;28;20170;-72
2023/06/10 09:17:37;;;;;;;14.50;4.65;;;21.70;99.90;;;;;;5092002;28;20040;-73
2023/06/10 09:20:04;;;;;;;10.48;4.80;;;21.90;99.90;;;;;;5091766;28;20046;-72
2023/06/10 09:22:30;;;;;;;14.75;4.40;;;21.50;99.90;;;;;;5075338;28;20033;-73
2023/06/10 09:25:33;;;;;;;11.15;4.40;;;22.10;99.90;;;;;;5091859;28;20620;-72
2023/06/10 09:27:59;;;;;;;14.30;4.70;;;22.20;99.90;;;;;;5093884;28;20044;-72
2023/06/10 09:30:34;;;;;;;8.00;4.70;;;22.10;99.90;;;;;;5067686;28;20048;-72
2023/06/10 09:33:11;;;;;;;11.82;4.55;;;21.80;99.90;;;;;;5074032;28;20460;-72
2023/06/10 09:35:44;;;;;;;7.03;4.63;;;21.80;99.90;;;;;;5095504;28;20036;-73
2023/06/10 09:38:10;;;;;;;8.05;4.40;;;21.80;99.90;;;;;;5062575;28;20036;-73
2023/06/10 09:40:52;;;;;;;9.13;4.18;;;21.40;99.90;;;;;;5071819;28;20048;-72
2023/06/10 09:43:18;;;;;;;7.93;4.55;;;;;;;;;;5087515;28;20093;-72
2023/06/10 09:45:44;;;;;;;7.03;4.60;;;22.80;99.90;;;;;;5060498;28;20036;-72
2023/06/10 09:48:10;;;;;;;10.13;4.65;;;21.70;99.90;;;;;;5081699;28;20047;-73
2023/06/10 09:50:43;;;;;;;8.25;5.13;;;21.80;99.90;;;;;;5088582;28;20040;-72
2023/06/10 09:53:10;;;;;;;6.47;4.15;;;22.60;99.90;;;;;;5078624;28;20079;-73
2023/06/10 09:55:39;;;;;;;8.85;4.63;;;22.80;99.90;;;;;;5084031;28;20484;-72
2023/06/10 09:58:05;;;;;;;6.28;4.40;;;23.40;99.90;;;;;;5067607;28;20094;-73
2023/06/10 10:00:36;;;;;;;7.40;4.63;;;23.10;99.90;;;;;;5069571;28;20405;-72
2023/06/10 10:03:02;;;;;;;7.90;4.78;;;;;;;;;;5077004;28;20040;-72
2023/06/10 10:05:29;;;;;;;8.27;4.30;;;22.70;99.90;;;;;;5059429;28;20032;-72
2023/06/10 10:07:56;;;;;;;10.90;4.20;;;23.50;99.90;;;;;;5074895;28;20162;-72
2023/06/10 10:10:22;;;;;;;10.13;3.63;;;22.70;99.90;;;;;;5074680;28;20044;-72
2023/06/10 10:12:50;;;;;;;11.32;4.57;;;23.70;99.90;;;;;;5052477;28;20029;-72
2023/06/10 10:15:18;;;;;;;12.27;4.32;;;23.60;99.90;;;;;;5077324;28;20129;-72
2023/06/10 10:17:58;;;;;;;7.80;4.47;;;24.70;99.90;;;;;;5063314;28;20143;-72
2023/06/10 10:20:31;;;;;;;10.48;4.55;;;23.70;83.70;;;;;;5090175;28;20039;-72
2023/06/10 10:22:57;;;;;;;7.57;4.25;;;24.00;90.40;;;;;;5065181;28;20035;-72
2023/06/10 10:25:29;;;;;;;9.20;4.45;;;24.40;85.40;;;;;;5061456;28;20047;-72
2023/06/10 10:27:57;;;;;;;7.78;3.70;;;24.60;90.20;;;;;;5087405;28;20059;-71
2023/06/10 10:30:24;;;;;;;9.70;4.32;;;24.50;89.80;;;;;;5084270;28;20047;-72
2023/06/10 10:33:12;;;;;;;7.28;4.00;;;23.70;79.20;;;;;;5077148;28;20044;-72
2023/06/10 10:35:38;;;;;;;7.57;3.95;;;24.20;88.10;;;;;;5075997;28;20068;-72
2023/06/10 10:38:05;;;;;;;7.03;3.95;;;24.90;87.30;;;;;;5076971;28;20048;-71
2023/06/10 10:40:32;;;;;;;7.75;3.83;;;25.00;79.50;;;;;;5076963;28;20067;-72
2023/06/10 10:42:59;;;;;;;10.13;4.22;;;24.50;78.70;;;;;;5061063;28;20037;-73
2023/06/10 10:45:28;;;;;;;7.72;4.50;;;25.20;84.70;;;;;;5064645;28;20067;-72
2023/06/10 10:47:56;;;;;;;8.10;4.20;;;24.40;85.80;;;;;;5080841;28;20044;-72
2023/06/10 10:50:22;;;;;;;7.80;3.90;;;;;;;;;;5082412;28;20062;-72
2023/06/10 10:52:51;;;;;;;8.25;4.32;;;25.00;75.40;;;;;;5082185;28;20039;-72
2023/06/10 10:55:17;;;;;;;10.00;4.70;;;25.50;85.70;;;;;;5082078;28;20456;-72
2023/06/10 10:57:42;;;;;;;7.18;4.38;;;25.70;86.10;;;;;;5083184;28;20127;-72
2023/06/10 11:00:11;;;;;;;8.82;4.47;;;25.50;85.90;;;;;;5085641;28;20067;-72
2023/06/10 11:02:43;;;;;;;10.40;4.47;;;25.90;85.30;;;;;;5083563;28;20094;-73
2023/06/10 11:05:09;;;;;;;;;;;25.40;78.30;;;;;;5083607;28;20087;-72
2023/06/10 11:07:36;;;;;;;7.75;3.72;;;25.00;84.10;;;;;;5080308;28;19920;-73
2023/06/10 11:10:08;;;;;;;8.82;4.20;;;25.50;83.80;;;;;;5075283;28;20044;-69
2023/06/10 11:12:46;;;;;;;8.13;3.72;;;25.60;80.60;;;;;;5078860;28;20162;-70
2023/06/10 11:15:25;;;;;;;8.50;3.80;;;26.00;82.90;;;;;;5074408;28;20053;-70
2023/06/10 11:18:11;;;;;;;8.95;3.88;;;26.10;74.60;;;;;;5080435;28;20038;-70
2023/06/10 11:20:52;;;;;;;8.38;3.78;;;25.60;82.40;;;;;;5076169;28;20044;-70
2023/06/10 11:23:27;;;;;;;9.57;3.97;;;25.90;72.70;;;;;;5081600;28;20133;-70
2023/06/10 11:26:12;;;;;;;9.57;3.90;;;26.30;76.80;;;;;;5076445;28;20138;-70
2023/06/10 11:29:01;;;;;;;8.38;3.90;;;26.10;74.40;;;;;;5078989;28;20036;-70
2023/06/10 11:31:29;;;;;;;8.00;3.97;;;25.70;74.90;;;;;;5077851;28;20040;-70
2023/06/10 11:34:04;;;;;;;9.18;3.88;;;26.20;82.50;;;;;;5078866;28;20040;-70
2023/06/10 11:36:31;;;;;;;11.30;4.00;;;25.80;81.80;;;;;;5088823;28;20037;-70
2023/06/10 11:39:05;;;;;;;11.30;4.03;;;26.10;81.10;;;;;;5090779;28;20036;-70
2023/06/10 11:41:33;;;;;;;8.70;4.03;;;26.20;76.80;;;;;;5092395;28;20118;-70
2023/06/10 11:44:13;;;;;;;5.55;3.60;;;26.70;71.00;;;;;;5085882;28;20527;-70
2023/06/10 11:46:39;;;;;;;7.88;3.63;;;;;;;;;;5073282;28;20040;-70
2023/06/10 11:49:05;;;;;;;9.57;3.95;;;26.60;70.40;;;;;;5074403;28;20048;-70
2023/06/10 11:51:36;;;;;;;9.23;4.00;;;26.30;79.60;;;;;;5086030;28;20080;-70
2023/06/10 11:54:03;;;;;;;10.02;4.53;;;26.70;81.10;;;;;;5065611;28;20188;-72
2023/06/10 11:56:30;;;;;;;10.10;4.25;;;26.70;82.80;;;;;;5080104;28;20048;-73
2023/06/10 11:59:05;;;;;;;12.38;4.35;;;26.50;83.30;;;;;;5072966;28;20044;-73
2023/06/10 12:01:32;;;;;;;10.93;4.55;;;27.00;83.40;;;;;;5072593;28;20033;-73
2023/06/10 12:04:00;;;;;;;16.20;5.10;;;26.50;85.80;;;;;;5074225;28;20043;-73
2023/06/10 12:06:26;;;;;;;13.02;5.13;;;;;;;;;;5090272;28;20044;-73
2023/06/10 12:08:52;;;;;;;13.70;4.90;;;;;;;;;;5084310;28;20115;-73
2023/06/10 12:11:18;;;;;;;11.35;4.70;;;26.60;89.00;;;;;;5072989;28;20041;-73
2023/06/10 12:13:49;;;;;;;8.45;4.53;;;26.70;81.20;;;;;;5072320;28;20049;-73
2023/06/10 12:16:15;;;;;;;14.23;5.18;;;26.60;90.00;;;;;;5072294;28;20051;-73
2023/06/10 12:18:45;;;;;;;10.55;4.88;;;26.40;82.60;;;;;;5065951;28;20040;-73
2023/06/10 12:21:22;;;;;;;9.50;4.88;;;26.60;80.50;;;;;;5076198;28;20127;-73
2023/06/10 12:24:11;;;;;;;10.75;5.18;;;26.80;90.20;;;;;;5092461;28;20101;-73
2023/06/10 12:26:41;;;;;;;14.07;5.75;;;26.40;90.40;;;;;;5091206;28;20054;-74
2023/06/10 12:29:24;;;;;;;13.95;5.18;;;27.10;81.80;;;;;;5073795;28;20399;-73
2023/06/10 12:32:00;;;;;;;14.07;5.70;;;26.60;81.00;;;;;;5077849;28;20541;-72
2023/06/10 12:34:33;;;;;;;12.60;5.20;;;26.90;90.70;;;;;;5085975;28;20044;-73
2023/06/10 12:37:00;;;;;;;9.88;5.70;;;26.70;91.00;;;;;;5072863;28;20079;-74
2023/06/10 12:39:26;;;;;;;19.55;6.03;;;26.60;91.30;;;;;;5055681;28;20052;-74
2023/06/10 12:41:52;;;;;;;16.05;6.43;;;26.50;91.70;;;;;;5073494;28;20147;-72
2023/06/10 12:44:17;;;;;;;13.77;6.78;;;26.40;89.20;;;;;;5071981;28;20119;-73
2023/06/10 12:46:43;;;;;;;19.30;6.10;;;26.70;90.20;;;;;;5055158;28;20041;-73
2023/06/10 12:49:19;;;;;;;16.65;5.90;;;25.60;92.10;;;;;;5071835;28;20040;-73
2023/06/10 12:51:46;;;;;;;15.80;6.10;;;26.50;92.60;;;;;;5055112;28;20169;-74
2023/06/10 12:54:12;;;;;;;16.65;5.47;;;26.80;89.70;;;;;;5071737;28;20056;-74
2023/06/10 12:56:38;;;;;;;15.75;5.20;;;26.80;91.50;;;;;;5055123;28;20132;-74
2023/06/10 12:59:04;;;;;;;15.73;5.47;;;;;;;;;;5055162;28;20131;-74
2023/06/10 13:01:31;;;;;;;18.08;6.13;;;26.90;92.30;;;;;;5072748;28;20123;-74
2023/06/10 13:03:57;;;;;;;15.13;5.85;;;26.90;92.10;;;;;;5055453;28;20090;-74
2023/06/10 13:06:23;;;;;;;16.27;5.07;;;;;;;;;;5071847;28;20047;-74
2023/06/10 13:08:50;;;;;;;14.48;5.53;;;26.80;92.60;;;;;;5055482;28;20070;-74
2023/06/10 13:11:16;;;;;;;12.98;5.50;;;26.80;92.50;;;;;;5038937;28;20443;-73
2023/06/10 13:13:42;;;;;;;14.40;6.07;;;26.90;92.10;;;;;;5071937;28;20040;-73
2023/06/10 13:16:08;;;;;;;15.35;6.45;;;27.10;91.80;;;;;;5071671;28;20076;-73
2023/06/10 13:18:37;;;;;;;14.10;5.43;;;26.80;92.00;;;;;;5054933;28;20456;-73
2023/06/10 13:21:06;;;;;;;12.93;5.32;;;26.90;85.10;;;;;;5055002;28;20067;-73
2023/06/10 13:23:32;;;;;;;15.80;5.53;;;26.70;92.20;;;;;;5072498;28;20385;-73